Date,TemperatureHighF,TemperatureAvgF,TemperatureLowF,DewpointHighF,DewpointAvgF,DewpointLowF,HumidityHigh,HumidityAvg,HumidityLow,PressureMaxIn,PressureMinIn,WindSpeedMaxMPH,WindSpeedAvgMPH,GustSpeedMaxMPH,PrecipitationSumIn
2013-1-1,26.5,12.3,2.0,24.7,7.7,-2.0,93,82,63,29.84,29.58,10,4,19,0.00
2013-1-2,8.7,-0.5,-17.0,3.1,-5.2,-22.0,87,80,70,30.16,29.81,12,2,19,0.00
2013-1-3,12.3,-3.4,-19.0,1.0,-9.3,-24.0,83,75,56,30.20,29.90,4,0,9,0.00
2013-1-4,27.4,19.7,7.4,24.3,16.5,2.0,91,88,78,29.88,29.66,6,0,21,0.00
2013-1-5,26.2,16.9,0.0,24.1,12.1,-3.0,92,81,61,30.17,29.66,14,2,20,0.00
2013-1-6,24.9,18.8,4.9,22.6,15.8,2.1,92,88,81,30.13,29.86,0,0,0,0.00
2013-1-7,24.3,15.4,7.3,22.3,10.4,3.6,92,81,62,30.29,29.89,4,0,11,0.01
2013-1-8,36.4,24.3,14.9,25.6,19.1,11.2,91,81,56,30.30,30.12,5,0,10,0.00
2013-1-9,35.0,27.4,17.5,30.9,23.4,15.2,94,85,71,30.31,29.83,11,4,29,0.00
2013-1-10,33.4,30.8,19.0,28.8,24.6,15.2,85,78,72,30.47,29.89,14,6,27,0.00
2013-1-11,33.2,24.4,11.9,29.7,18.9,9.2,93,80,60,30.47,30.07,17,3,17,0.00
2013-1-12,39.0,35.6,32.6,35.6,33.6,30.5,95,92,87,30.08,30.00,2,1,17,0.21
2013-1-13,42.5,37.9,32.8,40.0,35.9,31.5,96,93,82,30.04,29.81,10,2,19,0.06
2013-1-14,47.8,37.5,29.2,44.6,32.8,19.9,96,83,68,30.16,29.72,10,4,19,0.00
2013-1-15,29.2,24.5,15.7,20.4,17.8,12.7,91,76,63,30.24,30.16,9,9,0,0.00
2013-1-16,26.9,23.5,18.5,24.6,20.4,15.8,92,88,81,30.17,29.69,9,9,0,0.00
2013-1-17,29.3,17.3,1.4,25.9,8.7,-10.0,91,69,46,30.08,29.68,15,7,24,0.00
2013-1-18,12.8,2.4,-9.0,-2.0,-8.0,-15.0,78,61,43,30.31,30.06,15,4,27,0.00
2013-1-19,31.0,19.5,9.1,24.3,14.6,0.4,87,81,67,30.21,29.73,3,3,0,0.00
2013-1-20,33.7,32.6,31.4,26.3,24.4,23.1,78,72,69,29.70,29.34,22,5,24,0.00
2013-1-21,16.3,10.8,4.2,2.9,-0.0,-2.0,83,62,44,29.97,29.80,6,1,14,0.00
2013-1-22,10.5,2.4,-6.0,2.9,-3.3,-13.0,84,76,63,30.00,29.75,6,2,15,0.00
2013-1-23,-3.0,-10.3,-18.0,-12.0,-18.4,-24.0,77,67,50,30.12,29.99,12,4,19,0.00
2013-1-24,6.1,-7.9,-20.0,-10.0,-16.7,-25.0,83,65,44,30.21,30.06,9,4,26,0.00
2013-1-26,4.9,4.8,4.7,0.8,0.7,0.6,83,83,83,30.20,30.20,0,0,0,0.00
2013-1-27,14.8,2.2,-7.0,0.6,-5.1,-12.0,85,72,47,30.47,30.21,13,2,17,0.00
2013-1-28,16.0,6.5,-9.0,13.3,1.2,-14.0,89,79,47,30.44,30.02,3,3,0,0.00
2013-1-29,30.2,19.3,4.5,27.7,15.3,0.7,92,84,73,30.15,29.98,4,1,12,0.06
2013-1-30,48.3,39.5,30.4,47.2,37.9,28.3,96,94,92,29.95,29.24,0,0,0,0.57
2013-1-31,48.8,34.7,13.5,47.6,28.5,9.8,96,79,53,29.35,28.72,24,5,35,0.67